Benson, North Carolina
Current Conditions -  °F | °C
As of 6:35 PM on Monday 22 Dec 2014 (Local Time) from KHRJ Reporting Station
Haze Haze  
Wind Chill: 35°   Ceiling: 500
Heat Index: 40°   Visibility: 5mi
Dew Point: 40°   Wind: 8mph
Humidity: 100%   Direction: 10°N
Pressure: 30.05"   Gusts: NA
Location:  35.38°N, 78.55°W
Report Text: KHRJ 222335Z AUTO 01007KT 340V040 5SM BR OVC005 05/05 A3005 RMK AO2 T00450045
Loading
Personal Weather Stations






























Interactive Weather Map New forecast layout! Learn more

10-Day Weather Forecast

Advertisements
Track Severe Weather on mobile